Xoxocotlan International Airport
MMOX : now visible

Airfield :











YOU CAN JOIN US ON...

 
LOGIN :

Register | Disclaimer

   EN    FR    IT 

 









Legend :    VFR   Marginal VFR   IFR   Intensive IFR   Very Intensive IFR
Visi :
Ceiling :
>= 8 km
>= 3000ft
5 to 8 km
1000 to 3000 ft
1500m to 5 km
500 to 1000 ft
800 to 1500m
200 to 500 ft
< 800m
< 200 ft
Symbols :   Thunderstorms  Fog  Heavy snow  Heavy precipitations  Wind > 20 kt







- Airport Elevation : 4989 ft
- IATA code : OAX


MMOX - Xoxocotlan International

CURRENT METAR :
  • 192350Z 01009KT 12SM SCT040 SCT120 BKN210 23/16 A3009 RMK SLP082 52002 975 8/436

EXPIRED METARs :
  • 192241Z 13012KT 7SM SCT040 SCT120 BKN210 29/13 A3008 RMK 8/426
  • 192142Z 18007KT 12SM SCT025TCU SCT120 BKN210 29/14 A3010 RMK 8/236 CB SSW

TAF TAF MMOX
Valid from the 19 at 18:00 until the 20 at 18:00 UTC


191636Z 1918/2018 00000KT P6SM SCT030 BKN250
FM192100 20012KT P6SM BKN030
TEMPO 1923/2003 5SM TSRA BKN025CB
FM200400 00000KT P6SM SCT020 BKN200
MMFR FIR / North America



MET'MAP, your aeronautical weather chart ! - Copyright ORBIFLY December 2007 - Disclaimer

ORBIFLY MET'MAP TEAM :

Programming & Development : Alexandra Zaïnal
Concept & Development : Baudouin d'Aumeries
Co-Development & Prog : Marc-Olivier Méhu
Technical & hardware support : Manuel Goepfert

Contact : metmap@orbifly.com




SOURCES & CREDITS :

   NOAA       Earth
Advisory